createdAt,value
2022-09-01T00:00:14.881Z,98843.91
2022-09-01T00:02:45.176Z,98839.28
2022-09-01T00:05:13.991Z,98839.78
2022-09-01T00:07:45.017Z,98836.41
2022-09-01T00:10:13.167Z,98831.47
2022-09-01T00:12:41.332Z,98842.25
2022-09-01T00:15:12.483Z,98833.91
2022-09-01T00:17:40.802Z,98837.31
2022-09-01T00:20:11.369Z,98843.81
2022-09-01T00:22:39.449Z,98846.53
2022-09-01T00:25:08.994Z,98843.81
2022-09-01T00:27:37.023Z,98852.66
2022-09-01T00:30:05.810Z,98855.63
2022-09-01T00:32:35.211Z,98855.38
2022-09-01T00:35:03.330Z,98834.56
2022-09-01T00:37:31.379Z,98849.16
2022-09-01T00:39:59.434Z,98855.94
2022-09-01T00:42:27.439Z,98857.72
2022-09-01T00:44:55.479Z,98867.44
2022-09-01T00:47:23.587Z,98845.47
2022-09-01T00:49:53.205Z,98859.19
2022-09-01T00:52:22.866Z,98862.06
2022-09-01T00:54:53.491Z,98856.88
2022-09-01T00:57:22.236Z,98853.91
2022-09-01T00:59:53.704Z,98851.44
2022-09-01T01:02:22.886Z,98860.19
2022-09-01T01:04:52.715Z,98862.34
2022-09-01T01:07:23.539Z,98867.16
2022-09-01T01:09:52.398Z,98861.88
2022-09-01T01:12:20.608Z,98861.13
2022-09-01T01:14:50.070Z,98861.88
2022-09-01T01:17:18.670Z,98864.84
2022-09-01T01:20:05.524Z,98869.38
2022-09-01T01:22:57.392Z,98871.34
2022-09-01T01:25:26.899Z,98869.13
2022-09-01T01:28:04.579Z,98869.25
2022-09-01T01:30:36.855Z,98869.00
2022-09-01T01:33:05.632Z,98871.25
2022-09-01T01:35:34.908Z,98868.41
2022-09-01T01:38:07.920Z,98871.03
2022-09-01T01:40:38.483Z,98869.38
2022-09-01T01:43:07.198Z,98870.91
2022-09-01T01:45:35.459Z,98873.44
2022-09-01T01:48:08.517Z,98869.56
2022-09-01T01:50:38.026Z,98868.63
2022-09-01T01:53:10.972Z,98860.56
2022-09-01T01:55:43.705Z,98857.13
2022-09-01T01:58:14.940Z,98866.72
2022-09-01T02:00:44.634Z,98883.53
2022-09-01T02:03:17.231Z,98898.03
2022-09-01T02:05:46.368Z,98891.31
2022-09-01T02:08:15.533Z,98895.78
2022-09-01T02:10:46.570Z,98909.63
2022-09-01T02:13:17.413Z,98905.91
2022-09-01T02:15:46.806Z,98898.47
2022-09-01T02:18:18.147Z,98899.66
2022-09-01T02:20:47.681Z,98892.56
2022-09-01T02:23:20.165Z,98897.53
2022-09-01T02:26:14.651Z,98896.69
2022-09-01T02:28:42.480Z,98897.19
2022-09-01T02:31:11.641Z,98893.31
2022-09-01T02:33:45.497Z,98903.47
2022-09-01T02:36:15.838Z,98900.50
2022-09-01T02:38:46.117Z,98908.78
2022-09-01T02:41:21.747Z,98912.50
2022-09-01T02:43:50.358Z,98915.06
2022-09-01T02:46:23.394Z,98913.53
2022-09-01T02:48:53.424Z,98922.53
2022-09-01T02:51:25.296Z,98927.28
2022-09-01T02:53:53.477Z,98924.81
2022-09-01T02:56:25.555Z,98918.81
2022-09-01T02:58:55.154Z,98921.31
2022-09-01T03:01:26.517Z,98916.81
2022-09-01T03:03:56.047Z,98918.34
2022-09-01T03:06:24.967Z,98916.81
2022-09-01T03:08:53.759Z,98917.88
2022-09-01T03:11:24.264Z,98920.69
2022-09-01T03:13:52.816Z,98911.72
2022-09-01T03:16:22.433Z,98913.00
2022-09-01T03:18:51.348Z,98911.69
2022-09-01T03:21:20.351Z,98915.56
2022-09-01T03:23:49.173Z,98914.72
2022-09-01T03:26:19.325Z,98914.22
2022-09-01T03:28:48.801Z,98919.09
2022-09-01T03:31:18.240Z,98921.06
2022-09-01T03:33:46.850Z,98923.56
2022-09-01T03:36:22.948Z,98916.25
2022-09-01T03:38:51.388Z,98920.25
2022-09-01T03:41:22.366Z,98922.13
2022-09-01T03:43:54.958Z,98924.00
2022-09-01T03:46:24.283Z,98926.50
2022-09-01T03:48:54.950Z,98919.44
2022-09-01T03:51:23.478Z,98922.44
2022-09-01T03:53:54.469Z,98918.91
2022-09-01T03:56:24.626Z,98921.25
2022-09-01T03:58:54.867Z,98913.94
2022-09-01T04:01:23.018Z,98921.16
2022-09-01T04:03:52.122Z,98910.41
2022-09-01T04:06:25.002Z,98919.25
2022-09-01T04:08:57.758Z,98912.53
2022-09-01T04:11:26.434Z,98922.34
2022-09-01T04:13:55.833Z,98909.56
2022-09-01T04:16:43.358Z,98913.91
2022-09-01T04:19:19.942Z,98910.81
2022-09-01T04:21:50.319Z,98914.81
2022-09-01T04:24:19.066Z,98917.13
2022-09-01T04:26:49.547Z,98925.81
2022-09-01T04:29:27.268Z,98913.63
2022-09-01T04:31:56.404Z,98921.91
2022-09-01T04:34:24.802Z,98926.34
2022-09-01T04:36:54.464Z,98925.53
2022-09-01T04:39:23.344Z,98930.59
2022-09-01T04:41:51.604Z,98926.09
2022-09-01T04:44:22.171Z,98930.09
2022-09-01T04:46:50.968Z,98927.75
2022-09-01T04:49:22.478Z,98937.53
2022-09-01T04:51:54.511Z,98925.56
2022-09-01T04:54:24.060Z,98935.81
2022-09-01T04:56:53.948Z,98938.66
2022-09-01T04:59:27.028Z,98931.88
2022-09-01T05:02:00.587Z,98935.31
2022-09-01T05:04:32.524Z,98934.50
2022-09-01T05:07:01.723Z,98942.41
2022-09-01T05:09:36.652Z,98946.91
2022-09-01T05:12:16.187Z,98928.84
2022-09-01T05:14:48.554Z,98930.72
2022-09-01T05:17:21.544Z,98936.25
2022-09-01T05:19:50.975Z,98932.63
2022-09-01T05:22:23.038Z,98934.16
2022-09-01T05:25:02.960Z,98933.09
2022-09-01T05:27:31.451Z,98929.56
2022-09-01T05:30:01.222Z,98929.91
2022-09-01T05:32:30.375Z,98929.41
2022-09-01T05:34:58.663Z,98923.03
2022-09-01T05:37:30.263Z,98923.03
2022-09-01T05:39:58.597Z,98924.06
2022-09-01T05:42:27.915Z,98927.44
2022-09-01T05:44:55.962Z,98911.34
2022-09-01T05:47:26.319Z,98915.19
2022-09-01T05:49:58.429Z,98908.53
2022-09-01T05:52:27.446Z,98903.34
2022-09-01T05:54:56.738Z,98905.38
2022-09-01T05:57:35.124Z,98901.34
2022-09-01T06:00:10.935Z,98913.56
2022-09-01T06:02:43.433Z,98906.72
2022-09-01T06:05:17.392Z,98913.78
2022-09-01T06:07:47.533Z,98852.91
2022-09-01T06:10:16.235Z,98772.75
2022-09-01T06:12:45.645Z,98760.63
2022-09-01T06:15:18.585Z,98748.59
2022-09-01T06:17:52.663Z,98738.84
2022-09-01T06:20:22.943Z,98737.22
2022-09-01T06:22:52.697Z,98746.63
2022-09-01T06:25:22.088Z,98775.91
2022-09-01T06:27:52.416Z,98813.91
2022-09-01T06:30:24.446Z,98766.00
2022-09-01T06:33:13.572Z,98804.00
2022-09-01T06:35:47.155Z,98844.78
2022-09-01T06:38:17.571Z,98850.25
2022-09-01T06:40:48.469Z,98849.81
2022-09-01T06:43:20.510Z,98855.97
2022-09-01T06:45:54.802Z,98865.84
2022-09-01T06:48:30.787Z,98869.91
2022-09-01T06:51:16.088Z,98864.56
2022-09-01T06:53:50.093Z,98855.13
2022-09-01T06:56:19.047Z,98872.94
2022-09-01T06:58:48.197Z,98871.72
2022-09-01T07:01:19.714Z,98866.28
2022-09-01T07:03:51.891Z,98855.72
2022-09-01T07:06:59.670Z,98849.69
2022-09-01T07:10:05.910Z,98845.09
2022-09-01T07:13:04.734Z,98841.19
2022-09-01T07:18:22.653Z,98842.66
2022-09-01T07:21:36.574Z,98837.72
2022-09-01T07:26:33.831Z,98829.47
2022-09-01T07:29:04.319Z,98819.41
2022-09-01T07:32:48.095Z,98827.81
2022-09-01T07:34:46.448Z,98829.13
2022-09-01T07:38:47.798Z,98830.78
2022-09-01T07:42:30.447Z,98830.97
2022-09-01T07:43:20.570Z,98813.28
2022-09-01T07:49:29.559Z,98807.22
2022-09-01T07:51:50.877Z,98792.66
2022-09-01T07:54:25.124Z,98799.78
2022-09-01T07:56:55.561Z,98794.88
2022-09-01T07:59:25.823Z,98786.09
2022-09-01T08:02:01.023Z,98792.41
2022-09-01T08:04:29.184Z,98796.50
2022-09-01T08:06:57.495Z,98787.69
2022-09-01T08:09:38.179Z,98792.13
2022-09-01T08:12:08.923Z,98792.13
2022-09-01T08:17:53.187Z,98789.72
2022-09-01T08:20:23.887Z,98784.59
2022-09-01T08:23:13.067Z,98784.03
2022-09-01T08:25:44.081Z,98794.28
2022-09-01T08:28:13.128Z,98787.69
2022-09-01T08:30:52.331Z,98784.34
2022-09-01T08:33:22.470Z,98779.97
2022-09-01T08:35:50.579Z,98773.25
2022-09-01T08:38:20.442Z,98778.09
2022-09-01T08:40:56.347Z,98775.91
2022-09-01T08:43:31.826Z,98774.03
2022-09-01T08:46:06.410Z,98775.56
2022-09-01T08:49:23.803Z,98782.63
2022-09-01T08:51:30.969Z,98772.97
2022-09-01T08:54:03.416Z,98777.69
2022-09-01T08:56:36.064Z,98776.38
2022-09-01T08:59:04.843Z,98780.25
2022-09-01T09:01:58.462Z,98779.88
2022-09-01T09:04:37.755Z,98789.25
2022-09-01T09:07:10.738Z,98779.13
2022-09-01T09:09:49.342Z,98783.59
2022-09-01T09:12:31.180Z,98787.25
2022-09-01T09:15:04.345Z,98784.50
2022-09-01T09:17:38.333Z,98782.44
2022-09-01T09:20:07.206Z,98791.91
2022-09-01T09:22:35.408Z,98781.94
2022-09-01T09:25:08.189Z,98780.00
2022-09-01T09:27:39.017Z,98779.41
2022-09-01T09:30:11.319Z,98782.19
2022-09-01T09:33:16.108Z,98777.97
2022-09-01T09:35:36.329Z,98781.06
2022-09-01T09:38:21.480Z,98775.91
2022-09-01T09:41:16.514Z,98780.09
2022-09-01T09:43:49.688Z,98778.66
2022-09-01T09:46:24.744Z,98783.44
2022-09-01T09:49:11.014Z,98773.97
2022-09-01T09:51:39.619Z,98777.78
2022-09-01T09:54:15.445Z,98773.97
2022-09-01T09:56:44.492Z,98771.31
2022-09-01T09:59:45.940Z,98776.53
2022-09-01T10:02:27.840Z,98774.38
2022-09-01T10:04:57.189Z,98765.34
2022-09-01T10:07:27.474Z,98769.69
2022-09-01T10:09:56.420Z,98770.06
2022-09-01T10:12:25.584Z,98760.63
2022-09-01T10:14:57.233Z,98765.53
2022-09-01T10:17:29.728Z,98767.06
2022-09-01T10:20:06.870Z,98770.06
2022-09-01T10:22:35.898Z,98771.72
2022-09-01T10:25:05.802Z,98774.69
2022-09-01T10:27:36.263Z,98771.28
2022-09-01T10:30:12.589Z,98772.19
2022-09-01T10:32:50.818Z,98767.38
2022-09-01T10:35:23.715Z,98769.19
2022-09-01T10:37:52.587Z,98775.50
2022-09-01T10:40:35.005Z,98768.38
2022-09-01T10:43:18.129Z,98761.22
2022-09-01T10:45:51.929Z,98772.28
2022-09-01T10:48:35.980Z,98762.88
2022-09-01T10:51:50.164Z,98766.03
2022-09-01T10:54:39.051Z,98767.53
2022-09-01T10:57:12.230Z,98758.72
2022-09-01T10:59:45.062Z,98759.47
2022-09-01T11:02:27.674Z,98740.34
2022-09-01T11:05:14.338Z,98744.47
2022-09-01T11:08:01.577Z,98751.84
2022-09-01T11:10:41.057Z,98751.31
2022-09-01T11:13:24.418Z,98746.63
2022-09-01T11:15:52.570Z,98742.06
2022-09-01T11:18:27.339Z,98741.94
2022-09-01T11:21:15.218Z,98740.25
2022-09-01T11:23:46.117Z,98744.38
2022-09-01T11:26:29.395Z,98739.72
2022-09-01T11:28:57.687Z,98727.56
2022-09-01T11:31:33.372Z,98723.69
2022-09-01T11:34:11.336Z,98736.56
2022-09-01T11:36:48.318Z,98721.47
2022-09-01T11:39:30.001Z,98732.84
2022-09-01T11:42:04.248Z,98730.44
2022-09-01T11:44:37.520Z,98725.72
2022-09-01T11:47:10.775Z,98731.81
2022-09-01T11:49:49.922Z,98711.28
2022-09-01T11:52:19.186Z,98713.09
2022-09-01T11:54:50.266Z,98712.03
2022-09-01T11:57:23.623Z,98716.53
2022-09-01T11:59:51.752Z,98715.44
2022-09-01T12:02:21.203Z,98720.81
2022-09-01T12:04:51.742Z,98712.41
2022-09-01T12:07:28.283Z,98715.13
2022-09-01T12:09:56.688Z,98709.53
2022-09-01T12:12:29.840Z,98703.53
2022-09-01T12:15:05.813Z,98704.06
2022-09-01T12:17:35.031Z,98707.47
2022-09-01T12:20:28.897Z,98699.41
2022-09-01T12:22:58.394Z,98704.28
2022-09-01T12:25:27.700Z,98694.25
2022-09-01T12:27:58.482Z,98685.22
2022-09-01T12:30:26.970Z,98686.53
2022-09-01T12:33:22.938Z,98685.75
2022-09-01T12:35:45.242Z,98695.50
2022-09-01T12:38:30.586Z,98685.91
2022-09-01T12:41:00.051Z,98682.06
2022-09-01T12:43:29.247Z,98690.38
2022-09-01T12:45:59.891Z,98689.41
2022-09-01T12:48:30.074Z,98689.44
2022-09-01T12:51:01.460Z,98679.78
2022-09-01T12:53:31.762Z,98680.81
2022-09-01T12:56:07.571Z,98675.53
2022-09-01T12:58:35.726Z,98682.88
2022-09-01T13:01:07.062Z,98679.00
2022-09-01T13:03:44.118Z,98689.28
2022-09-01T13:06:13.510Z,98682.44
2022-09-01T13:08:43.222Z,98677.44
2022-09-01T13:11:14.694Z,98680.00
2022-09-01T13:13:42.932Z,98672.41
2022-09-01T13:16:12.940Z,98669.16
2022-09-01T13:21:32.763Z,98669.56
2022-09-01T13:24:00.895Z,98665.56
2022-09-01T13:26:31.291Z,98672.72
2022-09-01T13:28:59.439Z,98665.63
2022-09-01T13:31:29.411Z,98665.94
2022-09-01T13:34:21.929Z,98671.16
2022-09-01T13:36:51.582Z,98663.97
2022-09-01T13:39:21.207Z,98661.63
2022-09-01T13:41:49.452Z,98671.41
2022-09-01T13:44:19.791Z,98670.59
2022-09-01T13:49:44.087Z,98662.59
2022-09-01T13:52:33.734Z,98660.31
2022-09-01T13:55:05.197Z,98650.13
2022-09-01T13:57:36.964Z,98657.09
2022-09-01T14:00:12.798Z,98651.16
2022-09-01T14:02:43.130Z,98649.56
2022-09-01T14:07:40.419Z,98647.00
2022-09-01T14:10:14.186Z,98643.41
2022-09-01T14:12:49.045Z,98640.53
2022-09-01T14:15:25.140Z,98641.19
2022-09-01T14:17:57.128Z,98637.19
2022-09-01T14:20:27.975Z,98638.41
2022-09-01T14:22:57.397Z,98648.78
2022-09-01T14:25:27.978Z,98635.41
2022-09-01T14:27:58.468Z,98634.75
2022-09-01T14:30:31.620Z,98631.78
2022-09-01T14:33:03.782Z,98636.41
2022-09-01T14:35:33.067Z,98625.38
2022-09-01T14:38:02.650Z,98630.06
2022-09-01T14:40:30.734Z,98619.41
2022-09-01T14:42:58.826Z,98620.84
2022-09-01T14:45:28.694Z,98619.78
2022-09-01T14:47:58.580Z,98615.06
2022-09-01T14:50:26.671Z,98609.00
2022-09-01T14:52:55.966Z,98614.47
2022-09-01T14:55:26.422Z,98621.13
2022-09-01T14:57:55.039Z,98621.69
2022-09-01T15:00:24.835Z,98616.56
2022-09-01T15:02:53.871Z,98616.53
2022-09-01T15:05:24.542Z,98614.63
2022-09-01T15:07:55.161Z,98612.56
2022-09-01T15:10:33.094Z,98611.50
2022-09-01T15:13:04.731Z,98601.28
2022-09-01T15:15:33.358Z,98596.75
2022-09-01T15:18:07.754Z,98601.44
2022-09-01T15:20:46.242Z,98599.72
2022-09-01T15:23:15.014Z,98603.03
2022-09-01T15:25:44.428Z,98599.34
2022-09-01T15:28:12.935Z,98597.19
2022-09-01T15:30:41.449Z,98593.13
2022-09-01T15:33:14.795Z,98592.81
2022-09-01T15:35:46.512Z,98597.28
2022-09-01T15:38:16.238Z,98597.91
2022-09-01T15:40:57.250Z,98600.94
2022-09-01T15:43:27.389Z,98589.09
2022-09-01T15:45:58.063Z,98587.50
2022-09-01T15:48:26.420Z,98589.72
2022-09-01T15:50:54.961Z,98598.59
2022-09-01T15:53:25.123Z,98591.72
2022-09-01T15:55:57.417Z,98586.09
2022-09-01T15:58:30.448Z,98586.72
2022-09-01T16:01:07.407Z,98580.97
2022-09-01T16:03:35.486Z,98586.88
2022-09-01T16:06:03.619Z,98583.81
2022-09-01T16:08:31.723Z,98578.88
2022-09-01T16:11:02.296Z,98581.78
2022-09-01T16:13:30.397Z,98572.69
2022-09-01T16:16:03.631Z,98578.78
2022-09-01T16:18:34.509Z,98573.88
2022-09-01T16:21:05.119Z,98566.84
2022-09-01T16:23:38.088Z,98566.81
2022-09-01T16:26:07.908Z,98568.91
2022-09-01T16:28:37.058Z,98562.31
2022-09-01T16:31:07.947Z,98574.00
2022-09-01T16:36:17.132Z,98566.84
2022-09-01T16:38:48.755Z,98568.38
2022-09-01T16:41:31.556Z,98554.94
2022-09-01T16:44:03.488Z,98558.16
2022-09-01T16:46:34.750Z,98563.63
2022-09-01T16:49:09.368Z,98563.78
2022-09-01T16:51:44.471Z,98556.94
2022-09-01T16:54:20.690Z,98563.53
2022-09-01T16:56:54.752Z,98558.00
2022-09-01T16:59:29.237Z,98552.63
2022-09-01T17:02:04.403Z,98550.63
2022-09-01T17:04:36.935Z,98558.50
2022-09-01T17:07:09.175Z,98550.03
2022-09-01T17:09:40.472Z,98553.00
2022-09-01T17:12:26.051Z,98554.19
2022-09-01T17:14:57.597Z,98554.22
2022-09-01T17:17:35.445Z,98560.91
2022-09-01T17:20:05.448Z,98556.69
2022-09-01T17:22:34.646Z,98550.66
2022-09-01T17:25:04.727Z,98555.56
2022-09-01T17:27:37.660Z,98555.22
2022-09-01T17:30:07.068Z,98551.91
2022-09-01T17:32:48.175Z,98559.66
2022-09-01T17:35:20.475Z,98560.94
2022-09-01T17:37:56.114Z,98576.22
2022-09-01T17:40:27.225Z,98566.56
2022-09-01T17:43:02.556Z,98566.16
2022-09-01T17:45:33.472Z,98573.78
2022-09-01T17:48:06.047Z,98576.81
2022-09-01T17:50:42.758Z,98577.13
2022-09-01T17:53:17.847Z,98584.78
2022-09-01T17:55:50.285Z,98584.34
2022-09-01T17:58:24.521Z,98583.44
2022-09-01T18:00:57.951Z,98582.69
2022-09-01T18:03:37.154Z,98578.59
2022-09-01T18:06:08.466Z,98580.59
2022-09-01T18:08:40.185Z,98588.13
2022-09-01T18:11:12.632Z,98581.84
2022-09-01T18:13:53.166Z,98586.25
2022-09-01T18:16:24.432Z,98585.19
2022-09-01T18:18:53.199Z,98586.53
2022-09-01T18:21:22.489Z,98590.41
2022-09-01T18:23:52.439Z,98588.75
2022-09-01T18:26:24.075Z,98599.25
2022-09-01T18:28:55.465Z,98610.50
2022-09-01T18:31:46.666Z,98602.03
2022-09-01T18:34:31.210Z,98609.69
2022-09-01T18:37:07.115Z,98612.59
2022-09-01T18:39:44.545Z,98611.22
2022-09-01T18:42:18.504Z,98600.81
2022-09-01T18:44:53.679Z,98603.06
2022-09-01T18:47:25.536Z,98606.34
2022-09-01T18:49:56.781Z,98608.53
2022-09-01T18:52:42.160Z,98607.44
2022-09-01T18:55:16.208Z,98605.84
2022-09-01T18:57:48.011Z,98598.78
2022-09-01T19:00:19.645Z,98605.31
2022-09-01T19:03:04.634Z,98611.63
2022-09-01T19:05:39.395Z,98611.38
2022-09-01T19:08:11.568Z,98613.84
2022-09-01T19:10:45.042Z,98605.09
2022-09-01T19:13:19.054Z,98607.31
2022-09-01T19:15:52.778Z,98607.06
2022-09-01T19:18:26.318Z,98618.28
2022-09-01T19:20:58.054Z,98613.63
2022-09-01T19:23:30.182Z,98616.41
2022-09-01T19:26:03.173Z,98611.75
2022-09-01T19:28:36.087Z,98610.88
2022-09-01T19:31:10.138Z,98616.91
2022-09-01T19:33:40.429Z,98618.28
2022-09-01T19:36:12.895Z,98618.03
2022-09-01T19:38:44.970Z,98624.84
2022-09-01T19:41:15.600Z,98618.84
2022-09-01T19:43:43.954Z,98624.03
2022-09-01T19:46:22.398Z,98622.09
2022-09-01T19:48:52.779Z,98631.63
2022-09-01T19:51:23.494Z,98628.94
2022-09-01T19:53:57.175Z,98627.00
2022-09-01T19:56:29.015Z,98627.28
2022-09-01T19:59:01.016Z,98624.00
2022-09-01T20:01:38.799Z,98628.41
2022-09-01T20:04:15.923Z,98631.97
2022-09-01T20:06:44.879Z,98619.38
2022-09-01T20:09:15.251Z,98621.28
2022-09-01T20:11:47.223Z,98615.81
2022-09-01T20:14:21.531Z,98621.00
2022-09-01T20:16:53.221Z,98620.44
2022-09-01T20:19:26.564Z,98621.81
2022-09-01T20:21:54.859Z,98618.28
2022-09-01T20:24:30.311Z,98616.81
2022-09-01T20:27:01.609Z,98620.66
2022-09-01T20:29:35.915Z,98620.34
2022-09-01T20:32:05.785Z,98618.97
2022-09-01T20:34:37.595Z,98620.41
2022-09-01T20:37:09.922Z,98615.09
2022-09-01T20:39:57.714Z,98617.88
2022-09-01T20:42:31.415Z,98621.38
2022-09-01T20:45:00.851Z,98618.31
2022-09-01T20:47:31.595Z,98618.63
2022-09-01T20:50:01.099Z,98625.47
2022-09-01T20:52:34.680Z,98621.59
2022-09-01T20:55:10.907Z,98624.31
2022-09-01T20:57:42.864Z,98621.97
2022-09-01T21:00:16.854Z,98623.31
2022-09-01T21:02:51.391Z,98625.88
2022-09-01T21:05:28.177Z,98626.31
2022-09-01T21:08:01.728Z,98620.81
2022-09-01T21:10:34.615Z,98630.66
2022-09-01T21:13:11.505Z,98631.97
2022-09-01T21:15:43.770Z,98628.38
2022-09-01T21:18:24.596Z,98629.91
2022-09-01T21:20:57.610Z,98628.66
2022-09-01T21:23:29.107Z,98630.34
2022-09-01T21:25:57.492Z,98627.59
2022-09-01T21:28:27.844Z,98625.78
2022-09-01T21:30:57.761Z,98625.41
2022-09-01T21:33:28.841Z,98623.97
2022-09-01T21:35:57.777Z,98621.63
2022-09-01T21:38:25.837Z,98622.91
2022-09-01T21:40:54.715Z,98631.06
2022-09-01T21:43:24.619Z,98622.38
2022-09-01T21:45:52.785Z,98627.91
2022-09-01T21:48:20.975Z,98622.22
2022-09-01T21:50:50.400Z,98627.19
2022-09-01T21:53:18.526Z,98626.84
2022-09-01T21:55:46.626Z,98636.72
2022-09-01T21:58:14.776Z,98627.31
2022-09-01T22:02:37.319Z,98641.13
2022-09-01T22:05:09.040Z,98628.53
2022-09-01T22:07:40.332Z,98627.78
2022-09-01T22:10:11.998Z,98628.81
2022-09-01T22:12:42.555Z,98636.56
2022-09-01T22:15:13.424Z,98631.88
2022-09-01T22:17:43.429Z,98630.16
2022-09-01T22:20:13.476Z,98624.44
2022-09-01T22:22:42.145Z,98626.56
2022-09-01T22:25:13.754Z,98626.63
2022-09-01T22:27:42.175Z,98620.47
2022-09-01T22:30:11.298Z,98620.97
2022-09-01T22:32:45.234Z,98617.25
2022-09-01T22:35:15.139Z,98617.59
2022-09-01T22:37:43.638Z,98603.91
2022-09-01T22:40:13.331Z,98623.91
2022-09-01T22:42:42.783Z,98624.53
2022-09-01T22:45:12.988Z,98630.94
2022-09-01T22:47:44.862Z,98635.59
2022-09-01T22:50:13.454Z,98635.53
2022-09-01T22:52:42.004Z,98627.94
2022-09-01T22:55:13.578Z,98632.25
2022-09-01T22:57:42.098Z,98626.47
2022-09-01T23:00:11.667Z,98637.34
2022-09-01T23:02:40.534Z,98628.97
2022-09-01T23:05:11.414Z,98625.66
2022-09-01T23:07:39.985Z,98633.16
2022-09-01T23:10:10.172Z,98633.84
2022-09-01T23:12:38.667Z,98644.53
2022-09-01T23:15:08.346Z,98641.03
2022-09-01T23:17:37.901Z,98650.16
2022-09-01T23:20:08.974Z,98654.44
2022-09-01T23:22:39.256Z,98638.09
2022-09-01T23:25:08.727Z,98637.63
2022-09-01T23:27:37.854Z,98633.31
2022-09-01T23:30:09.084Z,98626.28
2022-09-01T23:32:37.589Z,98632.22
2022-09-01T23:35:06.838Z,98625.47
2022-09-01T23:37:35.188Z,98632.56
2022-09-01T23:40:06.137Z,98637.59
2022-09-01T23:42:35.060Z,98630.81
2022-09-01T23:45:03.434Z,98640.22
2022-09-01T23:47:31.968Z,98634.69
2022-09-01T23:50:03.214Z,98639.28
2022-09-01T23:52:31.524Z,98638.13
2022-09-01T23:54:59.902Z,98634.19
2022-09-01T23:57:29.692Z,98630.81
2022-09-01T23:59:58.947Z,98631.63
